Time;durP1;ratioP1;P1;durP2;ratioP2;P2;SDS_P1;SDS_P2;PMS_P1;PMS_P2;Temp;Humidity;BMP_temperature;BMP_pressure;BME280_temperature;BME280_humidity;BME280_pressure;Samples;Min_cycle;Max_cycle;Signal;HPM_P1;HPM_P2
2022/06/17 00:01:51;;;;;;;5.93;3.77;;;15.90;99.90;;;;;;4998763;28;20203;-68
2022/06/17 00:04:18;;;;;;;5.13;3.77;;;15.90;99.90;;;;;;4999022;28;20671;-68
2022/06/17 00:06:52;;;;;;;7.03;3.60;;;15.80;99.90;;;;;;5016417;28;20196;-68
2022/06/17 00:09:22;;;;;;;6.90;3.70;;;15.70;99.90;;;;;;4998660;28;20239;-68
2022/06/17 00:11:49;;;;;;;5.87;3.53;;;15.70;99.90;;;;;;4998302;28;20291;-68
2022/06/17 00:14:32;;;;;;;6.20;3.47;;;15.70;99.90;;;;;;4998597;28;20652;-68
2022/06/17 00:17:09;;;;;;;7.77;3.83;;;15.70;99.90;;;;;;5016381;28;20199;-69
2022/06/17 00:19:36;;;;;;;6.70;3.40;;;15.70;99.90;;;;;;5016097;28;20183;-68
2022/06/17 00:22:03;;;;;;;7.13;3.53;;;15.60;99.90;;;;;;4998451;28;20208;-68
2022/06/17 00:24:32;;;;;;;5.70;3.67;;;15.60;99.90;;;;;;4998374;28;20665;-69
2022/06/17 00:26:59;;;;;;;4.67;3.40;;;15.50;99.90;;;;;;5015903;28;20275;-68
2022/06/17 00:29:28;;;;;;;7.20;3.70;;;15.50;99.90;;;;;;5015731;28;20239;-68
2022/06/17 00:31:56;;;;;;;4.27;3.27;;;15.50;99.90;;;;;;4998233;28;20291;-69
2022/06/17 00:34:23;;;;;;;6.30;3.37;;;15.50;99.90;;;;;;4998236;28;20196;-67
2022/06/17 00:36:57;;;;;;;4.43;2.90;;;15.40;99.90;;;;;;4998266;28;20231;-69
2022/06/17 00:39:27;;;;;;;8.07;2.80;;;15.30;99.90;;;;;;4998429;28;20207;-68
2022/06/17 00:41:58;;;;;;;7.27;2.80;;;15.30;99.90;;;;;;4998566;28;20219;-68
2022/06/17 00:44:53;;;;;;;3.83;2.90;;;15.30;99.90;;;;;;5015504;28;20741;-68
2022/06/17 00:47:38;;;;;;;4.07;2.47;;;15.30;99.90;;;;;;4997946;28;20195;-68
2022/06/17 00:50:23;;;;;;;5.90;2.83;;;15.20;99.90;;;;;;4997804;28;20318;-69
2022/06/17 00:53:05;;;;;;;7.47;2.80;;;15.10;99.90;;;;;;4997803;28;20228;-68
2022/06/17 00:55:39;;;;;;;3.40;2.37;;;15.10;99.90;;;;;;4996550;28;20259;-68
2022/06/17 00:58:20;;;;;;;5.57;2.80;;;15.00;99.90;;;;;;4997714;28;20207;-68
2022/06/17 01:00:49;;;;;;;4.90;2.60;;;15.00;99.90;;;;;;4997755;28;20204;-69
2022/06/17 01:03:23;;;;;;;6.40;2.97;;;15.00;99.90;;;;;;4997802;28;20198;-69
2022/06/17 01:06:00;;;;;;;8.07;3.33;;;15.00;99.90;;;;;;4997956;28;20246;-70
2022/06/17 01:11:32;;;;;;;5.40;3.10;;;14.90;99.90;;;;;;4997685;28;20227;-69
2022/06/17 01:14:00;;;;;;;4.70;2.93;;;14.90;99.90;;;;;;4997442;28;20199;-69
2022/06/17 01:16:35;;;;;;;4.80;2.73;;;14.90;99.90;;;;;;4997143;28;20571;-68
2022/06/17 01:19:09;;;;;;;5.77;2.97;;;14.80;99.90;;;;;;4997319;28;20220;-67
2022/06/17 01:21:42;;;;;;;7.43;3.20;;;14.80;99.90;;;;;;5014831;28;20687;-68
2022/06/17 01:24:10;;;;;;;4.67;2.60;;;14.70;99.90;;;;;;4997336;28;20196;-70
2022/06/17 01:26:37;;;;;;;6.47;2.90;;;14.60;99.90;;;;;;5014717;28;20561;-68
2022/06/17 01:29:12;;;;;;;7.80;2.87;;;14.60;99.90;;;;;;4997454;28;20210;-69
2022/06/17 01:31:44;;;;;;;5.00;2.50;;;14.60;99.90;;;;;;4996822;28;20327;-69
2022/06/17 01:34:13;;;;;;;5.57;2.60;;;14.50;99.90;;;;;;4997367;28;20200;-69
2022/06/17 01:36:43;;;;;;;2.63;2.20;;;14.50;99.90;;;;;;5014513;28;20202;-68
2022/06/17 01:39:13;;;;;;;3.13;2.20;;;14.50;99.90;;;;;;4997371;28;20200;-69
2022/06/17 01:41:41;;;;;;;9.20;2.50;;;14.40;99.90;;;;;;4997062;28;20653;-68
2022/06/17 01:44:21;;;;;;;3.70;2.23;;;14.50;99.90;;;;;;4997061;28;20245;-68
2022/06/17 01:46:52;;;;;;;4.47;2.30;;;14.40;99.90;;;;;;4996938;28;20192;-67
2022/06/17 01:49:44;;;;;;;4.37;2.50;;;14.40;99.90;;;;;;4996793;28;20607;-69
2022/06/17 01:52:41;;;;;;;4.93;2.20;;;14.30;99.90;;;;;;4996827;28;20290;-69
2022/06/17 01:55:15;;;;;;;6.20;2.33;;;14.20;99.90;;;;;;4996386;28;20740;-68
2022/06/17 01:58:02;;;;;;;4.73;2.17;;;14.10;99.90;;;;;;4996672;28;20196;-68
2022/06/17 02:00:30;;;;;;;2.47;1.87;;;14.10;99.90;;;;;;4997084;28;20206;-70
2022/06/17 02:03:08;;;;;;;3.87;2.10;;;14.10;99.90;;;;;;5013971;28;20206;-68
2022/06/17 02:05:39;;;;;;;3.17;2.20;;;14.10;99.90;;;;;;5014113;28;20246;-68
2022/06/17 02:08:06;;;;;;;4.70;2.10;;;14.00;99.90;;;;;;5014522;28;20287;-68
2022/06/17 02:10:37;;;;;;;7.73;2.40;;;14.00;99.90;;;;;;4996237;28;20231;-69
2022/06/17 02:13:06;;;;;;;2.87;2.00;;;14.00;99.90;;;;;;4996377;28;20616;-68
2022/06/17 02:15:34;;;;;;;2.90;1.80;;;14.00;99.90;;;;;;4996368;28;20200;-69
2022/06/17 02:18:04;;;;;;;3.17;1.70;;;14.00;99.90;;;;;;4996137;28;20249;-68
2022/06/17 02:20:31;;;;;;;4.37;2.07;;;13.90;99.90;;;;;;4996089;28;20322;-69
2022/06/17 02:23:01;;;;;;;3.40;1.83;;;13.90;99.90;;;;;;4996184;28;20204;-67
2022/06/17 02:25:33;;;;;;;2.67;1.60;;;13.90;99.90;;;;;;4995852;28;20207;-68
2022/06/17 02:28:01;;;;;;;2.27;1.70;;;13.90;99.90;;;;;;4995965;28;20201;-68
2022/06/17 02:30:29;;;;;;;2.53;1.70;;;13.90;99.90;;;;;;4996199;28;20230;-68
2022/06/17 02:33:00;;;;;;;2.53;1.40;;;13.80;99.90;;;;;;5013785;28;20589;-68
2022/06/17 02:35:36;;;;;;;5.03;1.63;;;13.80;99.90;;;;;;4995787;28;20294;-68
2022/06/17 02:38:04;;;;;;;2.80;1.67;;;13.80;99.90;;;;;;4995922;28;20293;-68
2022/06/17 02:40:35;;;;;;;3.43;1.70;;;13.90;99.90;;;;;;4995947;28;20229;-68
2022/06/17 02:43:06;;;;;;;2.13;1.53;;;13.80;99.90;;;;;;5013439;28;20557;-68
2022/06/17 02:45:39;;;;;;;2.90;1.40;;;13.90;99.90;;;;;;4995869;28;20646;-68
2022/06/17 02:48:23;;;;;;;1.87;1.33;;;13.90;99.90;;;;;;5013607;28;20235;-69
2022/06/17 02:50:52;;;;;;;3.47;1.70;;;13.90;99.90;;;;;;4995900;28;20223;-69
2022/06/17 02:53:27;;;;;;;2.33;1.30;;;13.90;99.90;;;;;;4995772;28;20238;-68
2022/06/17 02:55:55;;;;;;;2.50;1.50;;;13.90;99.90;;;;;;4995157;28;20323;-69
2022/06/17 02:58:47;;;;;;;2.47;1.40;;;13.90;99.90;;;;;;4995898;28;20206;-69
2022/06/17 03:01:27;;;;;;;3.90;1.40;;;13.90;99.90;;;;;;4995460;28;20240;-68
2022/06/17 03:03:55;;;;;;;3.87;1.60;;;13.90;99.90;;;;;;4995757;28;20209;-69
2022/06/17 03:06:38;;;;;;;2.03;1.37;;;13.90;99.90;;;;;;4995445;28;20200;-69
2022/06/17 03:09:36;;;;;;;3.37;1.43;;;13.90;99.90;;;;;;4995521;28;20196;-69
2022/06/17 03:12:32;;;;;;;2.07;1.20;;;13.90;99.90;;;;;;4936466;29;20706;-68
2022/06/17 03:15:11;;;;;;;1.63;1.20;;;14.00;99.90;;;;;;4917573;29;20206;-68
2022/06/17 03:17:43;;;;;;;1.43;1.20;;;14.10;99.90;;;;;;4918255;29;20240;-70
2022/06/17 03:20:33;;;;;;;2.17;1.20;;;14.10;99.90;;;;;;4937606;29;20209;-68
2022/06/17 03:23:06;;;;;;;3.00;1.17;;;14.20;99.90;;;;;;4937363;29;20572;-69
2022/06/17 03:25:51;;;;;;;2.00;1.03;;;14.20;99.90;;;;;;4937236;29;20811;-68
2022/06/17 03:28:26;;;;;;;1.83;1.10;;;14.30;99.90;;;;;;4921730;29;20206;-68
2022/06/17 03:31:04;;;;;;;2.07;1.27;;;14.30;99.90;;;;;;4937240;29;20226;-68
2022/06/17 03:33:46;;;;;;;2.40;1.30;;;14.30;99.90;;;;;;4936952;29;20206;-69
2022/06/17 03:36:44;;;;;;;2.00;1.20;;;14.30;99.90;;;;;;4937328;29;20682;-69
2022/06/17 03:40:19;;;;;;;2.77;1.13;;;14.30;99.90;;;;;;4846711;29;20241;-68
2022/06/17 03:43:09;;;;;;;1.50;1.10;;;14.30;99.90;;;;;;4813281;29;20209;-68
2022/06/17 03:45:47;;;;;;;2.23;1.10;;;14.40;99.90;;;;;;4827943;29;20196;-67
2022/06/17 03:48:27;;;;;;;2.50;1.10;;;14.40;99.90;;;;;;4827998;29;20201;-68
2022/06/17 03:51:16;;;;;;;2.17;1.10;;;14.40;99.90;;;;;;4849917;29;20264;-68
2022/06/17 03:53:44;;;;;;;3.13;1.20;;;14.40;99.90;;;;;;4861489;29;20251;-68
2022/06/17 03:56:27;;;;;;;3.77;1.23;;;14.40;99.90;;;;;;4861337;29;20320;-68
2022/06/17 03:58:58;;;;;;;1.77;1.20;;;14.50;99.90;;;;;;4846147;29;20218;-69
2022/06/17 04:01:47;;;;;;;1.97;1.30;;;14.50;99.90;;;;;;4846269;29;20252;-68
2022/06/17 04:04:26;;;;;;;2.43;1.67;;;14.50;99.90;;;;;;4845934;29;20606;-68
2022/06/17 04:06:56;;;;;;;2.97;1.30;;;14.60;99.90;;;;;;4846203;29;20201;-69
2022/06/17 04:09:26;;;;;;;3.07;1.40;;;14.60;99.90;;;;;;4845907;29;20656;-68
2022/06/17 04:11:59;;;;;;;1.73;1.37;;;14.60;99.90;;;;;;4845981;29;20264;-68
2022/06/17 04:14:54;;;;;;;4.17;1.60;;;14.70;99.90;;;;;;4861471;29;20321;-68
2022/06/17 04:17:44;;;;;;;2.97;1.47;;;14.80;99.90;;;;;;4896727;29;20208;-69
2022/06/17 04:20:37;;;;;;;3.13;1.60;;;14.80;99.90;;;;;;4920457;29;20206;-68
2022/06/17 04:23:26;;;;;;;3.53;1.30;;;14.80;99.90;;;;;;4920644;29;20209;-68
2022/06/17 04:26:10;;;;;;;3.47;1.20;;;14.80;99.90;;;;;;4920381;29;20213;-69
2022/06/17 04:28:44;;;;;;;2.37;1.30;;;14.90;99.90;;;;;;4936173;29;20211;-68
2022/06/17 04:31:19;;;;;;;2.57;1.30;;;15.00;99.90;;;;;;4919479;29;20266;-69
2022/06/17 04:33:53;;;;;;;2.07;1.37;;;15.00;99.90;;;;;;4920193;29;20388;-69
2022/06/17 04:36:32;;;;;;;3.13;1.37;;;15.10;99.90;;;;;;4920121;29;20203;-69
2022/06/17 04:38:59;;;;;;;3.67;1.60;;;15.10;99.90;;;;;;4920161;29;20210;-69
2022/06/17 04:41:31;;;;;;;3.90;1.63;;;15.20;99.90;;;;;;4936115;29;20210;-70
2022/06/17 04:44:00;;;;;;;3.43;1.50;;;15.20;99.90;;;;;;4935885;29;20600;-69
2022/06/17 04:46:42;;;;;;;3.43;1.50;;;15.30;99.90;;;;;;4920079;29;20199;-68
2022/06/17 04:49:20;;;;;;;3.40;1.50;;;15.30;99.90;;;;;;4919802;29;20751;-69
2022/06/17 04:51:48;;;;;;;2.03;1.40;;;15.30;99.90;;;;;;4919892;29;20758;-69
2022/06/17 04:54:16;;;;;;;3.57;1.40;;;15.40;99.90;;;;;;4952911;28;20232;-69
2022/06/17 04:56:46;;;;;;;4.23;1.43;;;15.50;99.90;;;;;;4997752;28;20224;-69
2022/06/17 04:59:36;;;;;;;1.97;1.57;;;15.60;99.90;;;;;;4997832;28;20203;-70
2022/06/17 05:02:06;;;;;;;5.00;1.40;;;15.70;99.90;;;;;;4997918;28;20206;-70
2022/06/17 05:04:33;;;;;;;5.30;1.50;;;15.70;99.90;;;;;;5015183;28;20272;-69
2022/06/17 05:07:00;;;;;;;2.90;1.50;;;15.70;99.90;;;;;;4997504;28;20196;-69
2022/06/17 05:09:34;;;;;;;3.20;1.47;;;15.80;99.90;;;;;;4997752;28;20290;-69
2022/06/17 05:12:11;;;;;;;2.93;1.40;;;15.90;99.90;;;;;;5015070;28;20216;-69
2022/06/17 05:14:44;;;;;;;1.60;1.30;;;15.90;99.90;;;;;;4997253;28;20526;-69
2022/06/17 05:17:11;;;;;;;2.53;1.30;;;15.90;99.90;;;;;;4997567;28;20287;-69
2022/06/17 05:19:38;;;;;;;2.83;1.30;;;16.00;99.90;;;;;;4997327;28;20208;-70
2022/06/17 05:22:13;;;;;;;2.23;1.30;;;16.00;99.90;;;;;;4997287;28;20286;-69
2022/06/17 05:24:42;;;;;;;3.53;1.60;;;16.20;99.90;;;;;;4997245;28;20208;-69
2022/06/17 05:27:10;;;;;;;3.23;1.70;;;16.30;99.90;;;;;;4997244;28;20192;-69
2022/06/17 05:29:37;;;;;;;2.40;1.30;;;16.30;99.90;;;;;;4996924;28;20208;-69
2022/06/17 05:32:05;;;;;;;4.47;1.40;;;16.40;99.90;;;;;;4997038;28;20258;-69
2022/06/17 05:34:32;;;;;;;3.27;1.30;;;16.30;99.90;;;;;;4996825;28;20204;-68
2022/06/17 05:36:59;;;;;;;4.43;1.63;;;16.40;99.90;;;;;;4997016;28;20290;-68
2022/06/17 05:39:28;;;;;;;3.00;1.50;;;16.40;99.90;;;;;;4996995;28;20291;-68
2022/06/17 05:41:55;;;;;;;2.90;1.47;;;16.30;99.90;;;;;;5014104;28;20594;-69
2022/06/17 05:44:22;;;;;;;3.50;1.40;;;16.30;99.90;;;;;;4996854;28;20636;-68
2022/06/17 05:46:49;;;;;;;3.73;1.53;;;16.30;99.90;;;;;;4996925;28;20200;-69
2022/06/17 05:49:16;;;;;;;3.30;1.73;;;16.40;99.90;;;;;;4996628;28;20295;-69
2022/06/17 05:51:43;;;;;;;2.70;1.37;;;16.50;99.90;;;;;;4997039;28;20311;-69
2022/06/17 05:54:10;;;;;;;2.37;1.30;;;16.60;99.90;;;;;;4996410;28;20232;-67
2022/06/17 05:56:37;;;;;;;3.00;1.20;;;16.60;99.90;;;;;;4996408;28;20253;-69
2022/06/17 05:59:04;;;;;;;2.43;1.30;;;16.70;99.90;;;;;;4996520;28;20218;-70
2022/06/17 06:01:31;;;;;;;3.47;1.40;;;16.80;99.90;;;;;;4996606;28;20291;-69
2022/06/17 06:03:58;;;;;;;2.27;1.13;;;16.70;99.90;;;;;;4996306;28;20199;-70
2022/06/17 06:06:25;;;;;;;2.60;1.40;;;16.90;99.90;;;;;;5014298;28;20721;-69
2022/06/17 06:08:52;;;;;;;5.87;1.23;;;16.90;99.90;;;;;;4996418;28;20200;-69
2022/06/17 06:11:19;;;;;;;3.23;1.20;;;16.90;99.90;;;;;;4996230;28;20303;-69
2022/06/17 06:13:47;;;;;;;3.07;1.30;;;17.00;99.90;;;;;;4996090;28;20211;-69
2022/06/17 06:16:15;;;;;;;1.77;1.10;;;17.10;99.90;;;;;;5014017;28;20188;-69
2022/06/17 06:18:45;;;;;;;1.83;1.13;;;17.20;99.90;;;;;;4996235;28;20650;-69
2022/06/17 06:21:12;;;;;;;3.20;1.30;;;17.20;99.90;;;;;;4996239;28;20661;-69
2022/06/17 06:23:41;;;;;;;2.13;1.20;;;17.20;99.90;;;;;;4995845;28;20196;-69
2022/06/17 06:26:11;;;;;;;3.37;1.10;;;17.30;99.90;;;;;;4995861;28;20654;-69
2022/06/17 06:28:38;;;;;;;2.63;1.30;;;17.30;99.90;;;;;;4995934;28;20299;-70
2022/06/17 06:31:26;;;;;;;1.97;1.30;;;17.30;99.90;;;;;;5013904;28;20295;-68
2022/06/17 06:33:53;;;;;;;3.13;1.27;;;17.40;99.90;;;;;;4995598;28;20187;-68
2022/06/17 06:36:21;;;;;;;3.60;1.17;;;17.50;99.90;;;;;;4995863;28;20197;-68
2022/06/17 06:38:48;;;;;;;2.97;1.43;;;17.60;99.90;;;;;;5013510;28;20191;-69
2022/06/17 06:41:17;;;;;;;2.77;1.30;;;17.50;99.90;;;;;;4995816;28;20196;-70
2022/06/17 06:43:45;;;;;;;2.67;1.17;;;17.50;99.90;;;;;;4995696;28;20246;-69
2022/06/17 06:46:15;;;;;;;3.23;1.23;;;17.50;99.90;;;;;;4995803;28;20196;-68
2022/06/17 06:48:47;;;;;;;2.17;1.00;;;17.60;99.90;;;;;;4995734;28;20249;-68
2022/06/17 06:51:15;;;;;;;2.15;1.30;;;17.60;99.90;;;;;;5012632;28;20448;-69
2022/06/17 06:53:42;;;;;;;3.87;1.20;;;17.60;99.90;;;;;;4994977;28;20291;-68
2022/06/17 06:56:09;;;;;;;1.20;1.10;;;17.80;99.90;;;;;;4995099;28;20219;-69
2022/06/17 06:58:39;;;;;;;2.47;1.27;;;17.90;99.90;;;;;;4995934;28;20303;-68
2022/06/17 07:01:06;;;;;;;3.20;1.17;;;18.10;99.90;;;;;;4995508;28;20290;-68
2022/06/17 07:03:34;;;;;;;2.07;1.50;;;18.20;99.90;;;;;;4995226;28;20300;-68
2022/06/17 07:06:04;;;;;;;2.50;1.40;;;18.20;99.90;;;;;;4995675;28;20200;-68
2022/06/17 07:08:34;;;;;;;5.07;1.50;;;18.00;99.90;;;;;;4995540;28;20200;-68
2022/06/17 07:11:03;;;;;;;3.60;1.30;;;18.10;99.90;;;;;;4995535;28;20211;-68
2022/06/17 07:13:31;;;;;;;3.80;1.77;;;18.20;99.90;;;;;;4995585;28;20200;-68
2022/06/17 07:15:59;;;;;;;2.77;1.30;;;18.40;99.90;;;;;;4995625;28;20237;-70
2022/06/17 07:18:32;;;;;;;3.83;1.47;;;18.30;99.90;;;;;;4995283;28;20204;-68
2022/06/17 07:21:08;;;;;;;2.40;1.47;;;18.40;99.90;;;;;;5012996;28;20218;-68
2022/06/17 07:23:41;;;;;;;3.00;1.50;;;18.50;99.90;;;;;;4995715;28;20210;-68
2022/06/17 07:26:19;;;;;;;2.67;1.30;;;18.50;99.90;;;;;;4995089;28;20299;-68
2022/06/17 07:28:47;;;;;;;1.47;1.10;;;18.60;99.90;;;;;;5012897;28;20222;-69
2022/06/17 07:31:15;;;;;;;1.73;1.30;;;18.60;99.90;;;;;;4995294;28;20224;-69
2022/06/17 07:33:42;;;;;;;2.00;1.20;;;18.60;99.90;;;;;;4995372;28;20200;-69
2022/06/17 07:41:50;;;;;;;2.40;1.30;;;18.60;99.90;;;;;;4995597;28;20657;-69
2022/06/17 07:44:23;;;;;;;2.77;1.40;;;18.70;99.90;;;;;;4995069;28;20665;-68
2022/06/17 07:46:50;;;;;;;3.07;1.50;;;18.70;99.90;;;;;;4995124;28;20692;-69
2022/06/17 07:49:17;;;;;;;2.60;1.33;;;18.70;99.90;;;;;;4995462;28;20216;-69
2022/06/17 07:51:46;;;;;;;3.00;1.40;;;18.80;99.90;;;;;;4995136;28;20223;-68
2022/06/17 07:54:13;;;;;;;2.53;1.50;;;18.90;99.90;;;;;;4994945;28;20259;-69
2022/06/17 07:56:40;;;;;;;3.67;1.60;;;18.90;99.90;;;;;;4994843;28;20220;-68
2022/06/17 07:59:07;;;;;;;3.17;1.50;;;19.00;99.90;;;;;;4994938;28;20292;-68
2022/06/17 08:01:34;;;;;;;3.23;1.57;;;19.10;99.90;;;;;;4995351;28;20283;-69
2022/06/17 08:04:01;;;;;;;5.50;1.50;;;19.10;99.90;;;;;;4996146;28;20621;-68
2022/06/17 08:06:28;;;;;;;4.03;1.60;;;19.20;99.90;;;;;;4998799;28;20580;-67
2022/06/17 08:08:56;;;;;;;2.20;1.37;;;19.40;99.90;;;;;;5016247;28;20250;-68
2022/06/17 08:11:24;;;;;;;3.50;1.70;;;19.40;99.90;;;;;;4998558;28;20230;-68
2022/06/17 08:13:51;;;;;;;3.60;1.57;;;19.20;99.90;;;;;;4999101;28;20591;-69
2022/06/17 08:16:18;;;;;;;4.97;1.60;;;19.20;99.90;;;;;;4998061;28;20287;-69
2022/06/17 08:18:46;;;;;;;4.03;1.87;;;19.10;99.90;;;;;;5015887;28;20284;-66
2022/06/17 08:21:13;;;;;;;7.70;2.17;;;19.10;99.90;;;;;;4998379;28;20184;-69
2022/06/17 08:24:01;;;;;;;2.70;1.60;;;19.10;99.90;;;;;;4998402;28;20203;-70
2022/06/17 08:26:28;;;;;;;4.27;1.60;;;19.50;99.90;;;;;;4998210;28;20287;-67
2022/06/17 08:28:54;;;;;;;2.80;1.40;;;20.00;99.90;;;;;;4998316;28;20292;-69
2022/06/17 08:31:21;;;;;;;2.87;1.50;;;20.30;99.90;;;;;;4998252;28;20291;-70
2022/06/17 08:33:48;;;;;;;2.47;1.33;;;20.90;99.90;;;;;;4998402;28;20562;-67
2022/06/17 08:36:22;;;;;;;4.75;1.45;;;21.60;99.90;;;;;;4997949;28;20562;-68
2022/06/17 08:38:57;;;;;;;3.30;1.65;;;22.50;99.90;;;;;;4998515;28;20597;-67
2022/06/17 08:41:30;;;;;;;2.78;1.20;;;23.20;99.90;;;;;;4998272;28;20211;-68
2022/06/17 08:44:16;;;;;;;7.47;1.63;;;23.60;99.90;;;;;;4998253;28;20200;-68
2022/06/17 08:46:58;;;;;;;3.20;1.45;;;23.80;99.90;;;;;;5015477;28;20188;-68
2022/06/17 08:49:40;;;;;;;4.10;1.60;;;23.50;99.90;;;;;;5015407;28;20207;-67
2022/06/17 08:52:29;;;;;;;1.55;1.40;;;23.80;99.90;;;;;;5015532;28;20768;-67
2022/06/17 08:55:14;;;;;;;4.32;1.50;;;23.50;99.90;;;;;;5015010;28;20568;-68
2022/06/17 08:57:59;;;;;;;2.92;1.58;;;23.20;99.90;;;;;;4998357;28;20543;-68
2022/06/17 09:00:50;;;;;;;3.38;1.52;;;23.80;99.90;;;;;;4994507;28;20184;-68
2022/06/17 09:03:39;;;;;;;1.65;1.20;;;24.40;99.90;;;;;;4997021;28;20299;-65
2022/06/17 09:06:43;;;;;;;1.50;1.23;;;25.00;99.90;;;;;;5014742;28;20544;-67
2022/06/17 09:09:36;;;;;;;2.15;1.50;;;25.60;99.90;;;;;;4997229;28;20290;-65
2022/06/17 09:12:32;;;;;;;4.22;1.40;;;24.80;99.90;;;;;;4953986;29;20660;-65
2022/06/17 09:15:12;;;;;;;3.13;1.23;;;24.70;99.90;;;;;;4937478;28;20198;-66
2022/06/17 09:17:53;;;;;;;1.60;1.40;;;24.80;99.90;;;;;;4938014;29;20285;-70
2022/06/17 09:20:26;;;;;;;2.42;1.40;;;24.10;99.90;;;;;;4938051;29;20648;-69
2022/06/17 09:23:00;;;;;;;2.85;1.58;;;23.70;99.90;;;;;;4954172;29;20760;-69
2022/06/17 09:25:36;;;;;;;1.98;1.50;;;23.80;99.90;;;;;;4953982;29;20227;-67
2022/06/17 09:28:06;;;;;;;3.42;1.70;;;24.00;99.90;;;;;;4954192;29;20194;-69
2022/06/17 09:30:40;;;;;;;2.58;1.60;;;23.60;99.90;;;;;;4954477;29;20206;-66
2022/06/17 09:33:19;;;;;;;2.47;1.70;;;23.50;99.90;;;;;;4938242;29;20262;-71
2022/06/17 09:35:55;;;;;;;3.67;1.45;;;23.10;99.90;;;;;;4937740;29;20464;-71
2022/06/17 09:38:54;;;;;;;2.63;1.55;;;22.70;99.90;;;;;;4954048;29;20201;-71
2022/06/17 09:41:21;;;;;;;7.10;1.80;;;22.80;99.90;;;;;;4937875;29;20469;-74
2022/06/17 09:44:20;;;;;;;4.43;1.80;;;23.00;99.90;;;;;;4954031;29;20234;-69
2022/06/17 09:47:28;;;;;;;4.05;1.50;;;23.20;99.90;;;;;;4937682;29;20213;-69
2022/06/17 09:50:02;;;;;;;2.67;1.70;;;23.80;99.90;;;;;;4983230;28;20507;-68
2022/06/17 09:52:34;;;;;;;3.28;1.60;;;24.10;99.90;;;;;;4996666;28;20250;-69
2022/06/17 09:55:25;;;;;;;6.63;1.70;;;24.50;99.90;;;;;;4996038;28;20326;-67
2022/06/17 09:58:00;;;;;;;2.58;1.50;;;24.70;99.90;;;;;;4996499;28;20203;-71
2022/06/17 10:00:35;;;;;;;3.08;1.80;;;24.60;99.90;;;;;;4996680;28;20218;-68
2022/06/17 10:03:11;;;;;;;2.70;1.60;;;24.10;99.60;;;;;;4996609;28;20199;-66
2022/06/17 10:06:22;;;;;;;2.83;1.70;;;23.80;99.90;;;;;;4995952;28;20231;-68
2022/06/17 10:08:57;;;;;;;4.20;1.47;;;23.60;99.90;;;;;;4996518;28;20206;-66
2022/06/17 10:11:29;;;;;;;1.80;1.43;;;23.00;99.90;;;;;;4996856;28;20200;-66
2022/06/17 10:14:11;;;;;;;2.30;1.43;;;22.70;99.90;;;;;;4996181;28;20287;-71
2022/06/17 10:19:36;;;;;;;2.88;1.77;;;22.90;99.90;;;;;;4996437;28;20598;-71
2022/06/17 10:22:28;;;;;;;2.30;1.50;;;23.90;99.90;;;;;;4996346;28;20245;-69
2022/06/17 10:25:14;;;;;;;2.53;1.45;;;24.40;99.90;;;;;;4996260;28;20200;-69
2022/06/17 10:27:43;;;;;;;4.03;1.55;;;24.80;99.10;;;;;;4996012;28;20200;-69
2022/06/17 10:30:34;;;;;;;4.85;1.40;;;24.90;97.80;;;;;;4996099;28;20283;-70
2022/06/17 10:33:01;;;;;;;4.20;1.30;;;25.90;98.10;;;;;;5013560;28;20659;-70
2022/06/17 10:35:31;;;;;;;2.80;1.35;;;25.90;94.40;;;;;;4995991;28;20204;-70
2022/06/17 10:38:02;;;;;;;2.40;1.33;;;25.20;95.40;;;;;;5013989;28;20726;-69
2022/06/17 10:40:33;;;;;;;2.13;1.20;;;25.00;95.10;;;;;;4996193;28;20200;-68
2022/06/17 10:43:04;;;;;;;4.05;1.33;;;25.70;95.40;;;;;;4996068;28;20222;-69
2022/06/17 10:45:32;;;;;;;2.25;1.50;;;25.90;94.40;;;;;;4995494;28;20203;-69
2022/06/17 10:48:20;;;;;;;2.67;1.38;;;25.10;94.00;;;;;;4996097;28;20291;-69
2022/06/17 10:50:47;;;;;;;2.45;1.48;;;25.00;94.70;;;;;;4995695;28;20730;-70
2022/06/17 10:53:21;;;;;;;3.47;1.60;;;25.10;95.40;;;;;;4995795;28;20246;-70
2022/06/17 10:55:52;;;;;;;2.35;1.42;;;25.20;94.30;;;;;;4994544;28;20477;-68
2022/06/17 10:58:33;;;;;;;2.22;1.17;;;25.20;92.40;;;;;;4995618;28;20206;-69
2022/06/17 11:01:11;;;;;;;2.17;1.50;;;25.00;92.40;;;;;;4995318;28;20239;-68
2022/06/17 11:03:45;;;;;;;1.60;1.20;;;24.40;93.60;;;;;;4995263;28;20283;-68
2022/06/17 11:06:17;;;;;;;1.35;1.17;;;23.90;94.40;;;;;;4995270;28;20238;-68
2022/06/17 11:08:58;;;;;;;3.67;1.40;;;24.00;94.20;;;;;;4995397;28;20226;-69
2022/06/17 11:14:44;;;;;;;2.88;1.50;;;24.20;94.50;;;;;;5012802;28;20223;-69
2022/06/17 11:17:14;;;;;;;2.78;1.50;;;24.10;94.90;;;;;;4995129;28;20299;-69
2022/06/17 11:19:43;;;;;;;5.07;1.40;;;24.10;94.80;;;;;;4994982;28;20204;-67
2022/06/17 11:22:26;;;;;;;2.57;1.70;;;23.50;94.40;;;;;;4994907;28;20224;-69
2022/06/17 11:24:58;;;;;;;1.93;1.50;;;23.30;95.50;;;;;;4994857;28;20296;-64
2022/06/17 11:27:41;;;;;;;5.57;1.40;;;22.70;96.10;;;;;;4976706;28;20673;-67
2022/06/17 11:30:21;;;;;;;2.92;1.60;;;22.80;97.10;;;;;;4974978;28;20442;-67
2022/06/17 11:32:50;;;;;;;3.00;1.50;;;22.20;97.60;;;;;;4993463;28;20232;-67
2022/06/17 11:35:28;;;;;;;2.53;1.40;;;22.30;98.50;;;;;;4975311;28;20219;-67
2022/06/17 11:37:57;;;;;;;3.37;1.57;;;22.60;98.20;;;;;;4975788;28;20254;-67
2022/06/17 11:40:27;;;;;;;3.40;1.50;;;22.80;98.40;;;;;;4978840;28;20306;-67
2022/06/17 11:43:00;;;;;;;3.50;1.40;;;22.80;97.70;;;;;;4979192;28;20264;-66
2022/06/17 11:45:28;;;;;;;4.05;1.67;;;23.00;98.40;;;;;;4995439;28;20255;-69
2022/06/17 11:48:11;;;;;;;3.22;1.45;;;23.50;96.80;;;;;;4996764;28;20560;-69
2022/06/17 11:50:41;;;;;;;2.77;1.30;;;24.50;96.10;;;;;;4979082;28;20201;-67
2022/06/17 11:53:17;;;;;;;3.88;1.50;;;25.70;93.20;;;;;;4979164;28;20259;-65
2022/06/17 11:55:49;;;;;;;3.40;1.30;;;27.00;91.90;;;;;;4987361;28;20481;-67
2022/06/17 11:58:53;;;;;;;3.13;1.73;;;27.60;87.90;;;;;;5018210;28;20290;-66
2022/06/17 12:01:20;;;;;;;1.70;1.25;;;27.30;88.70;;;;;;5018272;28;20290;-70
2022/06/17 12:03:47;;;;;;;2.72;1.45;;;26.60;88.30;;;;;;5018339;28;20287;-69
2022/06/17 12:06:28;;;;;;;2.10;1.40;;;26.30;88.10;;;;;;5036184;28;20601;-70
2022/06/17 12:09:21;;;;;;;2.72;1.38;;;26.30;88.30;;;;;;5036060;28;20648;-68
2022/06/17 12:11:51;;;;;;;3.35;1.30;;;27.60;84.10;;;;;;5018447;28;20250;-69
2022/06/17 12:14:29;;;;;;;2.75;1.30;;;27.30;82.10;;;;;;5018289;28;20676;-69
2022/06/17 12:16:57;;;;;;;2.72;1.35;;;28.10;78.20;;;;;;5018452;28;20199;-69
2022/06/17 12:19:44;;;;;;;2.70;1.60;;;28.20;76.90;;;;;;5017736;28;20191;-69
2022/06/17 12:22:22;;;;;;;1.40;1.02;;;28.50;78.50;;;;;;5018001;28;20244;-68
2022/06/17 12:25:16;;;;;;;2.05;1.35;;;27.70;75.40;;;;;;5017879;28;20709;-69
2022/06/17 12:27:59;;;;;;;2.85;1.20;;;26.80;77.50;;;;;;5035709;28;20608;-68
2022/06/17 12:30:46;;;;;;;1.33;1.23;;;26.40;81.10;;;;;;5017949;28;20641;-70
2022/06/17 12:33:25;;;;;;;4.03;1.30;;;25.00;81.60;;;;;;5018119;28;20354;-69
2022/06/17 12:36:22;;;;;;;1.92;1.27;;;25.10;84.50;;;;;;5017539;28;20199;-69
2022/06/17 12:39:21;;;;;;;2.97;1.33;;;24.20;85.10;;;;;;5018017;28;20231;-69
2022/06/17 12:41:55;;;;;;;3.00;1.70;;;23.80;87.20;;;;;;5010864;28;20277;-69
2022/06/17 12:44:41;;;;;;;5.28;1.40;;;24.50;88.20;;;;;;5017820;28;20208;-69
2022/06/17 12:47:26;;;;;;;4.07;1.38;;;25.50;87.50;;;;;;5017688;28;20249;-68
2022/06/17 12:53:21;;;;;;;4.50;1.30;;;26.90;83.20;;;;;;5017727;28;20266;-70
2022/06/17 12:56:10;;;;;;;2.28;1.40;;;27.20;83.50;;;;;;5017068;28;20261;-70
2022/06/17 12:59:01;;;;;;;2.17;1.50;;;26.70;85.20;;;;;;5017192;28;20939;-70
2022/06/17 13:02:00;;;;;;;2.97;1.42;;;26.50;84.70;;;;;;4989355;28;20600;-70
2022/06/17 13:05:05;;;;;;;3.10;1.52;;;26.20;85.10;;;;;;4977093;28;20321;-70
2022/06/17 13:08:01;;;;;;;4.13;1.45;;;25.90;85.50;;;;;;4994521;28;20276;-68
2022/06/17 13:10:47;;;;;;;2.80;1.50;;;25.60;85.60;;;;;;4976860;28;20201;-70
2022/06/17 13:13:22;;;;;;;1.63;1.40;;;25.00;87.50;;;;;;4976992;28;20242;-71
2022/06/17 13:15:56;;;;;;;2.17;1.50;;;24.50;87.30;;;;;;4976832;28;20607;-70
2022/06/17 13:18:38;;;;;;;2.15;1.63;;;24.30;89.70;;;;;;4976548;28;20328;-70
2022/06/17 13:21:18;;;;;;;3.15;1.80;;;23.70;90.60;;;;;;4977059;28;20291;-70
2022/06/17 13:23:56;;;;;;;3.58;1.60;;;24.00;91.30;;;;;;4994630;28;20593;-71
2022/06/17 13:26:48;;;;;;;1.37;1.27;;;23.90;91.10;;;;;;4976500;28;20242;-70
2022/06/17 13:29:23;;;;;;;2.03;1.40;;;23.90;92.20;;;;;;4956210;28;20216;-70
2022/06/17 13:31:56;;;;;;;2.08;1.23;;;24.00;90.90;;;;;;4956225;28;20767;-70
2022/06/17 13:34:33;;;;;;;1.83;1.30;;;23.80;90.80;;;;;;4955680;28;20229;-69
2022/06/17 13:37:26;;;;;;;2.90;1.30;;;23.70;91.20;;;;;;4972358;28;20205;-70
2022/06/17 13:40:00;;;;;;;5.50;1.50;;;23.80;90.90;;;;;;4914910;29;20204;-69
2022/06/17 13:42:29;;;;;;;2.23;1.47;;;23.60;91.40;;;;;;4898817;29;20194;-70
2022/06/17 13:45:01;;;;;;;2.20;1.30;;;23.40;91.30;;;;;;4914452;29;20298;-69
2022/06/17 13:48:04;;;;;;;3.37;1.40;;;23.10;91.30;;;;;;4914622;29;20199;-69
2022/06/17 13:50:52;;;;;;;2.73;1.40;;;22.80;92.50;;;;;;4898772;29;20199;-69